Terminal Aerodrome Forecast
Issued by NWS

Home | Current Version | Previous Version | Text Only | Print | Product List | Glossary Off
Versions: 1 2 3 4 5 6 7 8 9 10 11 12 13 14 15 16 17

970
FTUS43 KABR 130539
TAFMBG
TAF
KMBG 130539Z 1306/1406 31026G38KT P6SM BKN200
     FM131500 32027G40KT P6SM BKN030
     FM132100 33022G33KT P6SM BKN035
     FM140000 33011KT P6SM SCT045=

USA.gov is the U.S. government's official web portal to all federal, state and local government web resources and services.